createdAt,value
2023-03-31T00:16:52.296Z,94.5
2023-03-31T00:36:17.744Z,100
2023-03-31T00:55:38.514Z,100
2023-03-31T01:15:00.036Z,100
2023-03-31T01:34:19.985Z,100
2023-03-31T01:53:43.000Z,100
2023-03-31T02:13:05.026Z,100
2023-03-31T02:32:28.299Z,100
2023-03-31T02:51:51.416Z,100
2023-03-31T03:11:13.638Z,100
2023-03-31T03:30:36.998Z,100
2023-03-31T03:49:59.927Z,100
2023-03-31T04:09:23.058Z,100
2023-03-31T04:28:46.172Z,100
2023-03-31T04:48:08.049Z,100
2023-03-31T05:07:31.088Z,100
2023-03-31T05:26:53.968Z,100
2023-03-31T05:46:15.750Z,100
2023-03-31T06:05:38.420Z,100
2023-03-31T06:25:03.620Z,100
2023-03-31T06:44:26.715Z,100
2023-03-31T07:03:50.046Z,100
2023-03-31T07:23:13.573Z,100
2023-03-31T07:42:36.199Z,100
2023-03-31T08:01:57.537Z,100
2023-03-31T08:21:24.814Z,100
2023-03-31T08:40:47.721Z,100
2023-03-31T09:00:12.972Z,100
2023-03-31T09:19:38.478Z,100
2023-03-31T09:39:04.175Z,97.9
2023-03-31T09:58:22.828Z,95.1
2023-03-31T10:17:55.792Z,89.3
2023-03-31T10:37:10.707Z,90.9
2023-03-31T10:56:32.968Z,82
2023-03-31T11:15:52.495Z,93.4
2023-03-31T11:35:15.771Z,84.1
2023-03-31T11:54:39.657Z,77.8
2023-03-31T12:14:01.687Z,73.8
2023-03-31T12:33:25.308Z,75.6
2023-03-31T12:52:42.655Z,81.2
2023-03-31T13:12:04.022Z,80.5
2023-03-31T13:31:28.229Z,76.7
2023-03-31T13:50:50.224Z,81.4
2023-03-31T14:10:05.442Z,100
2023-03-31T14:29:30.190Z,100
2023-03-31T14:48:53.147Z,100
2023-03-31T15:08:17.745Z,100
2023-03-31T15:27:42.466Z,100
2023-03-31T15:47:04.529Z,96.5
2023-03-31T16:06:25.039Z,89.9
2023-03-31T16:25:46.218Z,94.9
2023-03-31T16:45:15.098Z,99.9
2023-03-31T17:04:30.765Z,100
2023-03-31T17:23:52.799Z,100
2023-03-31T17:43:15.118Z,100
2023-03-31T18:02:36.133Z,100
2023-03-31T18:21:56.948Z,98.9
2023-03-31T18:41:19.373Z,100
2023-03-31T19:00:41.122Z,94.9
2023-03-31T19:20:01.645Z,100
2023-03-31T19:39:24.052Z,100
2023-03-31T19:58:45.808Z,100
2023-03-31T20:18:07.117Z,100
2023-03-31T20:37:29.247Z,100
2023-03-31T20:56:50.695Z,100
2023-03-31T21:16:12.324Z,100
2023-03-31T21:35:35.603Z,100
2023-03-31T21:54:57.271Z,100
2023-03-31T22:14:20.457Z,100
2023-03-31T22:33:42.776Z,100
2023-03-31T22:53:05.313Z,100
2023-03-31T23:12:27.929Z,100
2023-03-31T23:31:50.441Z,100
2023-03-31T23:51:13.050Z,100
